Time;durP1;ratioP1;P1;durP2;ratioP2;P2;SDS_P1;SDS_P2;PMS_P1;PMS_P2;Temp;Humidity;BMP_temperature;BMP_pressure;BME280_temperature;BME280_humidity;BME280_pressure;Samples;Min_cycle;Max_cycle;Signal;HPM_P1;HPM_P2
2022/03/24 00:00:17;;;;;;;20.42;8.40;;;7.90;96.70;;;7.85;61.01;102251.88;5249148;28;20052;-73
2022/03/24 00:02:49;;;;;;;23.40;8.32;;;7.80;97.00;;;7.79;61.08;102254.06;5249560;28;20048;-72
2022/03/24 00:05:21;;;;;;;24.90;8.68;;;7.80;97.40;;;7.72;61.20;102251.84;5249521;28;20063;-72
2022/03/24 00:07:53;;;;;;;18.83;7.78;;;7.70;97.60;;;7.67;61.24;102248.00;5249230;28;20059;-71
2022/03/24 00:10:25;;;;;;;19.33;7.70;;;7.70;97.90;;;7.62;61.22;102251.97;5249347;28;20048;-72
2022/03/24 00:12:59;;;;;;;20.67;7.88;;;7.60;98.00;;;7.58;61.65;102245.69;5230292;28;20083;-71
2022/03/24 00:15:31;;;;;;;19.80;7.45;;;7.60;98.20;;;7.55;62.15;102245.47;5229016;28;20082;-71
2022/03/24 00:18:03;;;;;;;19.63;7.43;;;7.50;98.40;;;7.50;62.40;102245.97;5228788;28;20536;-72
2022/03/24 00:20:35;;;;;;;16.08;7.20;;;7.50;98.70;;;7.44;63.01;102250.72;5228637;28;20520;-71
2022/03/24 00:23:07;;;;;;;18.52;7.45;;;7.40;98.80;;;7.37;62.97;102246.78;5228262;28;20052;-72
2022/03/24 00:25:39;;;;;;;18.25;7.70;;;7.40;98.90;;;7.30;63.72;102242.88;5228320;28;20053;-72
2022/03/24 00:28:13;;;;;;;19.50;7.72;;;7.30;99.30;;;7.24;63.56;102247.63;5228483;28;20051;-72
2022/03/24 00:30:45;;;;;;;19.42;7.93;;;7.20;99.50;;;7.19;64.07;102248.97;5228474;28;20040;-72
2022/03/24 00:33:17;;;;;;;19.98;7.72;;;7.20;99.90;;;7.13;64.10;102238.16;5228408;28;20076;-72
2022/03/24 00:35:49;;;;;;;18.17;7.72;;;7.10;99.90;;;7.10;64.69;102242.22;5228318;28;20405;-73
2022/03/24 00:38:21;;;;;;;24.05;7.97;;;7.10;99.90;;;7.03;64.48;102241.78;5228489;28;20049;-73
2022/03/24 00:40:55;;;;;;;19.85;8.32;;;7.10;99.90;;;6.99;65.00;102234.59;5228260;28;20500;-72
2022/03/24 00:43:28;;;;;;;18.38;7.90;;;7.00;99.90;;;6.98;64.26;102244.84;5227990;28;20088;-72
2022/03/24 00:46:01;;;;;;;18.73;7.85;;;7.00;99.90;;;6.94;64.68;102242.81;5228045;28;20045;-72
2022/03/24 00:48:33;;;;;;;22.48;8.30;;;6.90;99.90;;;6.91;64.71;102242.56;5228051;28;20052;-72
2022/03/24 00:51:05;;;;;;;20.73;8.20;;;6.90;99.90;;;6.88;64.91;102239.78;5228028;28;20045;-72
2022/03/24 00:53:37;;;;;;;17.23;7.57;;;6.90;99.90;;;6.87;64.79;102240.56;5227003;28;20048;-72
2022/03/24 00:56:10;;;;;;;17.15;6.93;;;6.90;99.90;;;6.85;64.90;102235.28;5228336;28;20060;-72
2022/03/24 00:58:44;;;;;;;19.98;8.02;;;6.90;99.90;;;6.80;64.98;102234.94;5227943;28;20055;-72
2022/03/24 01:01:16;;;;;;;21.95;8.20;;;6.80;99.90;;;6.80;64.78;102236.63;5227950;28;20051;-72
2022/03/24 01:03:49;;;;;;;21.35;7.93;;;6.80;99.90;;;6.76;64.88;102230.31;5227833;28;20053;-72
2022/03/24 01:06:25;;;;;;;19.02;7.85;;;6.80;99.90;;;6.75;64.83;102233.69;5227910;28;20143;-72
2022/03/24 01:08:58;;;;;;;18.75;6.90;;;6.80;99.90;;;6.75;65.31;102232.78;5227893;28;20056;-72
2022/03/24 01:11:30;;;;;;;20.23;7.25;;;6.70;99.90;;;6.72;64.86;102232.59;5227761;28;20448;-73
2022/03/24 01:14:05;;;;;;;21.60;8.07;;;6.70;99.90;;;6.72;64.50;102230.91;5227765;28;20132;-72
2022/03/24 01:16:38;;;;;;;19.30;8.07;;;6.70;99.90;;;6.73;64.38;102239.56;5227561;28;20049;-73
2022/03/24 01:19:10;;;;;;;17.65;7.50;;;6.70;99.90;;;6.71;64.67;102231.66;5227444;28;20044;-72
2022/03/24 01:21:42;;;;;;;18.55;7.43;;;6.70;99.90;;;6.65;64.95;102230.31;5227353;28;20051;-72
2022/03/24 01:24:14;;;;;;;17.25;6.70;;;6.70;99.90;;;6.59;65.35;102225.59;5227671;28;20063;-73
2022/03/24 01:26:46;;;;;;;20.50;8.10;;;6.60;99.90;;;6.57;65.93;102227.16;5235258;28;20052;-72
2022/03/24 01:29:21;;;;;;;18.45;8.05;;;6.60;99.90;;;6.55;65.71;102230.44;5227214;28;20390;-72
2022/03/24 01:31:53;;;;;;;21.05;8.55;;;6.60;99.90;;;6.53;65.86;102232.94;5227210;28;20053;-72
2022/03/24 01:34:25;;;;;;;20.25;7.30;;;6.50;99.90;;;6.50;66.10;102232.69;5227330;28;20061;-72
2022/03/24 01:36:58;;;;;;;17.20;7.90;;;6.50;99.90;;;6.44;66.48;102227.03;5227333;28;20048;-71
2022/03/24 01:39:30;;;;;;;18.83;7.68;;;6.50;99.90;;;6.37;66.65;102219.63;5227153;28;20056;-72
2022/03/24 01:42:02;;;;;;;19.38;8.15;;;6.40;99.90;;;6.31;67.13;102221.75;5227066;28;20059;-72
2022/03/24 01:44:35;;;;;;;18.50;7.82;;;6.40;99.90;;;6.27;67.62;102220.63;5234232;28;20059;-72
2022/03/24 01:47:10;;;;;;;19.40;8.27;;;6.30;99.90;;;6.21;67.64;102231.44;5247862;28;20427;-73
2022/03/24 01:49:46;;;;;;;23.48;8.63;;;6.30;99.90;;;6.17;68.13;102223.31;5247653;28;20044;-73
2022/03/24 01:52:19;;;;;;;23.02;9.00;;;6.30;99.90;;;6.11;68.58;102222.84;5247364;28;20044;-72
2022/03/24 01:54:56;;;;;;;20.70;8.10;;;6.20;99.90;;;6.07;68.63;102221.72;5247371;28;20048;-72
2022/03/24 01:57:29;;;;;;;20.30;8.50;;;6.10;99.90;;;6.05;68.60;102223.28;5247631;28;20048;-72
2022/03/24 02:00:04;;;;;;;24.83;9.18;;;6.10;99.90;;;6.04;68.46;102215.41;5247049;28;20051;-73
2022/03/24 02:02:37;;;;;;;;;;;6.10;99.90;;;6.03;68.34;102217.09;5247571;28;20052;-72
2022/03/24 02:05:10;;;;;;;21.88;8.00;;;6.00;99.90;;;6.02;68.24;102211.81;5247199;28;19920;-72
2022/03/24 02:07:42;;;;;;;18.27;8.73;;;6.10;99.90;;;5.99;68.34;102215.94;5247075;28;20055;-72
2022/03/24 02:10:14;;;;;;;19.25;8.50;;;6.10;99.90;;;5.98;68.29;102215.84;5247195;28;20047;-73
2022/03/24 02:12:46;;;;;;;21.30;8.82;;;6.00;99.90;;;5.94;68.50;102213.81;5246927;28;20055;-73
2022/03/24 02:15:19;;;;;;;23.73;8.90;;;6.00;99.90;;;5.90;68.40;102210.06;5247247;28;20048;-72
2022/03/24 02:17:52;;;;;;;24.40;9.23;;;6.00;99.90;;;5.87;68.80;102211.53;5246670;28;20060;-72
2022/03/24 02:20:28;;;;;;;25.20;8.85;;;6.00;99.90;;;5.88;68.88;102214.22;5246796;28;20049;-72
2022/03/24 02:23:02;;;;;;;19.83;8.77;;;6.00;99.90;;;5.84;68.43;102207.00;5246756;28;20048;-71
2022/03/24 02:25:35;;;;;;;22.00;9.18;;;5.90;99.90;;;5.83;68.49;102209.47;5247106;28;20059;-73
2022/03/24 02:28:07;;;;;;;22.40;9.05;;;5.90;99.90;;;5.77;68.84;102209.00;5246681;28;20052;-72
2022/03/24 02:30:39;;;;;;;22.98;9.18;;;5.90;99.90;;;5.75;69.19;102208.00;5246639;28;20045;-72
2022/03/24 02:33:12;;;;;;;23.15;8.20;;;5.90;99.90;;;5.70;68.90;102208.53;5246657;28;20048;-73
2022/03/24 02:35:44;;;;;;;21.67;9.63;;;5.80;99.90;;;5.67;69.32;102212.56;5246791;28;20049;-72
2022/03/24 02:38:19;;;;;;;25.10;9.48;;;5.70;99.90;;;5.62;69.64;102217.41;5246802;28;20068;-72
2022/03/24 02:40:51;;;;;;;19.88;8.50;;;5.70;99.90;;;5.58;69.69;102212.75;5246799;28;20048;-72
2022/03/24 02:43:24;;;;;;;20.13;8.77;;;5.70;99.90;;;5.54;69.66;102208.16;5246592;28;20044;-71
2022/03/24 02:45:57;;;;;;;20.42;8.43;;;5.70;99.90;;;5.50;70.08;102218.13;5246328;28;20132;-72
2022/03/24 02:48:29;;;;;;;20.73;8.90;;;5.60;99.90;;;5.47;70.49;102218.78;5246747;28;20389;-72
2022/03/24 02:51:03;;;;;;;18.90;8.32;;;5.50;99.90;;;5.41;70.87;102210.53;5246491;28;20413;-71
2022/03/24 02:53:37;;;;;;;21.30;8.07;;;5.50;99.90;;;5.37;71.11;102217.16;5246746;28;20463;-72
2022/03/24 02:56:09;;;;;;;22.20;9.15;;;5.50;99.90;;;5.35;71.34;102213.56;5246433;28;20056;-71
2022/03/24 02:58:41;;;;;;;22.85;8.82;;;5.50;99.90;;;5.35;71.21;102218.75;5246531;28;20401;-71
2022/03/24 03:01:13;;;;;;;19.05;8.68;;;5.40;99.90;;;5.33;71.19;102215.13;5246351;28;20490;-73
2022/03/24 03:03:46;;;;;;;23.05;8.93;;;5.40;99.90;;;5.31;70.93;102214.09;5246360;28;20052;-72
2022/03/24 03:06:18;;;;;;;25.77;9.43;;;5.40;99.90;;;5.28;71.33;102220.69;5246441;28;20477;-72
2022/03/24 03:08:51;;;;;;;25.40;9.60;;;5.40;99.90;;;5.25;71.09;102221.38;5246495;28;20059;-72
2022/03/24 03:11:24;;;;;;;22.50;9.35;;;5.40;99.90;;;5.21;71.45;102218.41;5246352;28;20045;-74
2022/03/24 03:13:55;;;;;;;23.42;9.68;;;5.30;99.90;;;5.18;71.43;102220.00;5245999;28;20099;-72
2022/03/24 03:16:28;;;;;;;23.10;9.50;;;5.30;99.90;;;5.14;71.57;102220.53;5246781;28;20052;-72
2022/03/24 03:19:00;;;;;;;23.83;9.75;;;5.20;99.90;;;5.12;71.64;102222.09;5250354;28;20044;-72
2022/03/24 03:21:32;;;;;;;27.00;10.40;;;5.30;99.90;;;5.10;71.58;102221.06;5250255;28;20052;-73
2022/03/24 03:24:08;;;;;;;20.77;9.07;;;5.20;99.90;;;5.08;71.85;102222.63;5250648;28;20481;-71
2022/03/24 03:26:40;;;;;;;22.67;8.93;;;5.20;99.90;;;5.06;72.07;102226.78;5250617;28;20116;-72
2022/03/24 03:29:13;;;;;;;21.13;9.63;;;5.20;99.90;;;5.07;71.76;102230.25;5250473;28;20055;-71
2022/03/24 03:31:46;;;;;;;25.65;8.65;;;5.20;99.90;;;5.06;71.60;102226.78;5250308;28;20497;-73
2022/03/24 03:34:18;;;;;;;19.95;9.13;;;5.20;99.90;;;5.05;71.67;102227.56;5250130;28;20057;-72
2022/03/24 03:36:50;;;;;;;22.38;9.00;;;5.20;99.90;;;5.02;71.80;102224.75;5250447;28;20055;-72
2022/03/24 03:39:24;;;;;;;17.98;7.60;;;5.20;99.90;;;4.97;71.91;102233.81;5250272;28;20048;-72
2022/03/24 03:41:57;;;;;;;19.15;8.98;;;5.10;99.90;;;4.93;71.99;102216.25;5250166;28;20049;-72
2022/03/24 03:44:29;;;;;;;19.90;9.30;;;5.10;99.90;;;4.94;71.93;102217.13;5250313;28;20544;-73
2022/03/24 03:47:02;;;;;;;25.90;9.63;;;5.10;99.90;;;4.93;72.15;102229.16;5249711;28;20052;-72
2022/03/24 03:49:34;;;;;;;19.05;8.25;;;5.10;99.90;;;4.92;72.11;102227.34;5249701;28;20143;-72
2022/03/24 03:52:07;;;;;;;23.60;9.15;;;5.00;99.90;;;4.89;72.45;102230.63;5249758;28;20053;-72
2022/03/24 03:54:43;;;;;;;21.48;8.50;;;5.10;99.90;;;4.88;72.48;102227.88;5250191;28;20044;-72
2022/03/24 03:57:15;;;;;;;21.10;9.10;;;5.00;99.90;;;4.85;72.44;102227.66;5249659;28;20052;-72
2022/03/24 03:59:47;;;;;;;20.05;8.68;;;5.00;99.90;;;4.81;72.45;102230.75;5249588;28;20059;-72
2022/03/24 04:02:19;;;;;;;26.23;9.27;;;5.00;99.90;;;4.78;72.87;102220.19;5249923;28;20055;-73
2022/03/24 04:04:51;;;;;;;22.23;9.93;;;4.90;99.90;;;4.73;72.79;102229.25;5249707;28;20075;-72
2022/03/24 04:07:23;;;;;;;20.20;9.23;;;4.90;99.90;;;4.71;72.95;102228.22;5249900;28;20045;-72
2022/03/24 04:09:56;;;;;;;22.02;9.50;;;4.80;99.90;;;4.67;72.90;102227.06;5249482;28;20044;-72
2022/03/24 04:12:29;;;;;;;24.48;8.82;;;4.80;99.90;;;4.62;73.20;102224.09;5249334;28;20068;-71
2022/03/24 04:15:01;;;;;;;27.63;10.38;;;4.80;99.90;;;4.58;73.33;102227.22;5249742;28;20059;-72
2022/03/24 04:17:33;;;;;;;28.55;9.75;;;4.70;99.90;;;4.58;73.71;102221.16;5249777;28;20074;-72
2022/03/24 04:20:07;;;;;;;22.65;9.60;;;4.70;99.90;;;4.55;73.65;102229.53;5249249;28;20049;-72
2022/03/24 04:22:39;;;;;;;24.27;9.75;;;4.70;99.90;;;4.56;73.98;102227.84;5249374;28;20056;-72
2022/03/24 04:25:12;;;;;;;23.25;9.25;;;4.70;99.90;;;4.53;73.90;102225.94;5249191;28;20049;-72
2022/03/24 04:27:44;;;;;;;20.63;8.38;;;4.70;99.90;;;4.47;73.95;102225.44;5249365;28;20052;-72
2022/03/24 04:30:18;;;;;;;23.15;8.35;;;4.60;99.90;;;4.46;74.08;102226.22;5249243;28;20040;-73
2022/03/24 04:32:50;;;;;;;22.50;9.85;;;4.60;99.90;;;4.44;74.37;102226.88;5249278;28;20057;-72
2022/03/24 04:35:23;;;;;;;26.27;10.73;;;4.60;99.90;;;4.44;74.67;102232.06;5249107;28;20051;-72
2022/03/24 04:37:55;;;;;;;24.05;9.27;;;4.60;99.90;;;4.43;74.30;102227.63;5249136;28;20382;-72
2022/03/24 04:40:28;;;;;;;21.75;8.75;;;4.60;99.90;;;4.39;74.44;102223.91;5248936;28;20052;-72
2022/03/24 04:43:00;;;;;;;24.20;9.45;;;4.50;99.90;;;4.34;74.68;102231.28;5248582;28;20408;-72
2022/03/24 04:45:34;;;;;;;28.40;10.50;;;4.50;99.90;;;4.32;74.95;102231.94;5248949;28;20135;-72
2022/03/24 04:48:06;;;;;;;22.15;8.88;;;4.50;99.90;;;4.29;75.11;102222.25;5248753;28;20045;-72
2022/03/24 04:50:38;;;;;;;23.77;9.40;;;4.50;99.90;;;4.28;74.67;102229.88;5248896;28;20127;-73
2022/03/24 04:53:13;;;;;;;24.55;10.73;;;4.40;99.90;;;4.26;75.00;102231.44;5248960;28;20044;-72
2022/03/24 04:55:47;;;;;;;23.85;9.57;;;4.40;99.90;;;4.25;75.07;102232.22;5248749;28;20444;-72
2022/03/24 04:58:19;;;;;;;26.17;9.48;;;4.40;99.90;;;4.24;75.08;102227.81;5248585;28;20045;-72
2022/03/24 05:00:51;;;;;;;23.98;9.02;;;4.40;99.90;;;4.22;75.16;102238.00;5248253;28;20051;-72
2022/03/24 05:03:23;;;;;;;23.27;9.48;;;4.40;99.90;;;4.21;75.37;102232.72;5248647;28;20060;-72
2022/03/24 05:05:55;;;;;;;23.95;9.48;;;4.40;99.90;;;4.21;75.60;102230.13;5248812;28;20074;-72
2022/03/24 05:08:27;;;;;;;25.23;10.77;;;4.40;99.90;;;4.17;75.00;102235.81;5248669;28;20509;-72
2022/03/24 05:11:01;;;;;;;23.90;10.32;;;4.40;99.90;;;4.16;75.05;102234.00;5248393;28;20045;-72
2022/03/24 05:13:33;;;;;;;28.25;9.93;;;4.30;99.90;;;4.13;75.35;102233.78;5248455;28;20048;-73
2022/03/24 05:16:05;;;;;;;24.00;9.68;;;4.30;99.90;;;4.11;75.35;102235.28;5248219;28;20135;-71
2022/03/24 05:18:38;;;;;;;26.73;9.40;;;4.30;99.90;;;4.08;75.45;102228.22;5248412;28;20060;-72
2022/03/24 05:21:10;;;;;;;26.85;9.90;;;4.30;99.90;;;4.07;75.50;102240.22;5247902;28;20053;-70
2022/03/24 05:23:42;;;;;;;25.83;9.80;;;4.20;99.90;;;4.05;75.69;102231.47;5248081;28;20552;-72
2022/03/24 05:26:19;;;;;;;24.20;10.55;;;4.20;99.90;;;4.04;75.70;102236.47;5247982;28;20053;-72
2022/03/24 05:28:51;;;;;;;22.80;8.68;;;4.20;99.90;;;4.01;75.63;102244.88;5248371;28;20060;-73
2022/03/24 05:31:23;;;;;;;24.42;9.77;;;4.20;99.90;;;4.02;76.12;102241.50;5248446;28;20048;-71
2022/03/24 05:33:55;;;;;;;22.13;10.18;;;4.20;99.90;;;4.04;75.72;102251.94;5247999;28;20080;-72
2022/03/24 05:36:27;;;;;;;25.48;9.23;;;4.20;99.90;;;4.02;75.70;102249.25;5248177;28;20135;-72
2022/03/24 05:41:39;;;;;;;24.73;10.27;;;4.20;99.90;;;4.04;76.06;102258.03;5222544;28;20393;-69
2022/03/24 05:44:11;;;;;;;22.63;9.38;;;4.20;99.90;;;4.04;75.82;102255.47;5221940;28;20235;-69
2022/03/24 05:46:45;;;;;;;24.67;9.68;;;4.20;99.90;;;4.05;76.07;102262.41;5224706;28;20055;-70
2022/03/24 05:49:19;;;;;;;22.17;9.88;;;4.20;99.90;;;4.09;76.02;102259.31;5226049;28;20072;-70
2022/03/24 05:51:51;;;;;;;22.50;9.50;;;4.20;99.90;;;4.14;75.79;102267.44;5226604;28;20049;-69
2022/03/24 05:54:23;;;;;;;25.85;10.23;;;4.30;99.90;;;4.20;75.62;102261.91;5227277;28;20405;-69
2022/03/24 05:56:57;;;;;;;24.88;9.93;;;4.30;99.90;;;4.26;75.79;102262.41;5226787;28;20135;-71
2022/03/24 05:59:29;;;;;;;26.38;9.73;;;4.40;99.90;;;4.32;75.25;102262.91;5226095;28;20510;-71
2022/03/24 06:02:01;;;;;;;25.13;10.18;;;4.40;99.90;;;4.39;75.27;102259.16;5226202;28;20049;-72
2022/03/24 06:04:33;;;;;;;22.33;9.75;;;4.40;99.90;;;4.48;75.06;102259.91;5226492;28;20068;-71
2022/03/24 06:07:07;;;;;;;27.38;10.30;;;4.50;99.90;;;4.54;74.96;102258.75;5226012;28;20041;-70
2022/03/24 06:09:39;;;;;;;23.83;9.68;;;4.60;99.90;;;4.63;74.53;102267.25;5226354;28;20425;-71
2022/03/24 06:12:14;;;;;;;25.02;10.18;;;4.70;99.90;;;4.71;74.09;102267.88;5226091;28;20132;-69
2022/03/24 06:14:46;;;;;;;28.42;11.65;;;4.80;99.90;;;4.82;73.68;102264.47;5226385;28;20057;-68
2022/03/24 06:17:20;;;;;;;26.77;13.20;;;4.80;99.90;;;4.94;73.39;102261.97;5226421;28;20136;-69
2022/03/24 06:19:53;;;;;;;31.15;11.63;;;4.90;99.90;;;5.02;72.54;102263.53;5225898;28;20048;-70
2022/03/24 06:22:25;;;;;;;29.25;11.35;;;5.10;99.90;;;5.19;72.39;102272.59;5226110;28;20133;-68
2022/03/24 06:24:57;;;;;;;26.02;11.45;;;5.20;99.90;;;6.07;72.03;102268.34;5226030;28;20045;-69
2022/03/24 06:27:30;;;;;;;26.92;10.18;;;5.50;99.90;;;7.64;67.96;102266.00;5226286;28;20087;-69
2022/03/24 06:30:05;;;;;;;26.17;10.02;;;6.40;99.90;;;9.20;61.97;102271.25;5226063;28;20044;-71
2022/03/24 06:32:37;;;;;;;25.92;11.07;;;7.50;99.90;;;10.61;56.18;102275.56;5225954;28;20049;-72
2022/03/24 06:35:11;;;;;;;28.95;10.88;;;8.60;99.90;;;11.81;51.64;102272.72;5225702;28;20472;-71
2022/03/24 06:37:44;;;;;;;28.25;11.35;;;9.80;96.60;;;12.91;48.16;102268.75;5224106;28;20405;-71
2022/03/24 06:40:16;;;;;;;29.42;11.18;;;10.80;92.60;;;13.92;44.87;102280.47;5224933;28;20099;-71
2022/03/24 06:42:50;;;;;;;27.73;11.48;;;11.80;87.00;;;14.79;42.45;102271.09;5225913;28;20107;-72
2022/03/24 06:45:22;;;;;;;25.25;10.95;;;12.70;79.30;;;15.58;40.56;102274.22;5224962;28;20508;-71
2022/03/24 06:47:54;;;;;;;28.45;11.43;;;13.50;74.30;;;16.36;38.54;102276.19;5224799;28;20045;-71
2022/03/24 06:50:27;;;;;;;24.40;11.25;;;14.20;69.70;;;16.97;36.83;102273.91;5225853;28;20049;-71
2022/03/24 06:52:59;;;;;;;27.80;12.18;;;14.90;65.60;;;17.68;35.35;102276.97;5224955;28;20049;-72
2022/03/24 06:55:32;;;;;;;26.75;11.75;;;15.50;62.50;;;18.30;34.16;102275.19;5225195;28;20053;-72
2022/03/24 06:58:06;;;;;;;24.90;11.73;;;16.10;60.10;;;18.84;33.30;102276.59;5225337;28;20047;-67
2022/03/24 07:00:39;;;;;;;28.00;11.85;;;16.60;58.40;;;19.33;31.94;102281.28;5225234;28;20081;-67
2022/03/24 07:03:11;;;;;;;24.85;12.25;;;17.10;56.30;;;19.86;31.12;102283.31;5225433;28;20102;-68
2022/03/24 07:05:43;;;;;;;23.70;12.35;;;17.70;54.80;;;20.28;30.29;102278.84;5225550;28;20057;-67
2022/03/24 07:08:16;;;;;;;27.60;12.63;;;18.10;53.40;;;20.63;29.85;102277.72;5224839;28;20516;-67
2022/03/24 07:10:48;;;;;;;25.80;12.15;;;18.40;52.60;;;21.02;28.81;102286.31;5225065;28;20053;-66
2022/03/24 07:13:21;;;;;;;24.17;12.05;;;18.70;51.40;;;21.35;28.43;102280.63;5225578;28;20420;-66
2022/03/24 07:15:53;;;;;;;28.17;12.80;;;19.10;50.50;;;21.64;27.90;102288.09;5225497;28;20049;-68
2022/03/24 07:18:25;;;;;;;25.17;12.65;;;19.40;49.60;;;21.98;27.45;102291.16;5224825;28;20174;-66
2022/03/24 07:20:57;;;;;;;28.92;12.75;;;19.70;49.10;;;22.27;27.09;102287.09;5225571;28;20040;-67
2022/03/24 07:23:29;;;;;;;23.77;12.20;;;20.00;48.70;;;22.62;26.67;102291.81;5224969;28;20072;-68
2022/03/24 07:26:01;;;;;;;28.85;12.90;;;20.30;47.90;;;22.94;26.28;102292.13;5225186;28;20074;-67
2022/03/24 07:28:35;;;;;;;31.13;13.60;;;20.60;47.30;;;23.14;26.19;102289.59;5224960;28;20049;-67
2022/03/24 07:31:11;;;;;;;24.67;12.82;;;20.90;47.20;;;23.42;25.39;102288.00;5224940;28;20482;-68
2022/03/24 07:33:44;;;;;;;24.98;12.93;;;21.10;46.20;;;23.67;25.34;102295.28;5224958;28;20056;-67
2022/03/24 07:36:20;;;;;;;25.52;12.80;;;21.40;45.80;;;23.91;24.48;102297.13;5224986;28;20044;-68
2022/03/24 07:38:54;;;;;;;26.17;13.50;;;21.60;45.00;;;24.23;24.71;102294.53;5223281;28;20045;-67
2022/03/24 07:41:26;;;;;;;26.65;13.05;;;21.80;45.10;;;24.52;23.73;102297.31;5224329;28;20094;-68
2022/03/24 07:44:00;;;;;;;28.80;13.10;;;22.10;44.20;;;24.62;23.91;102293.72;5224601;28;20049;-65
2022/03/24 07:46:33;;;;;;;26.38;13.38;;;22.20;43.90;;;24.72;23.33;102299.09;5224810;28;20051;-64
2022/03/24 07:49:05;;;;;;;30.83;14.40;;;22.40;43.50;;;24.77;23.50;102297.28;5224204;28;20052;-64
2022/03/24 07:51:37;;;;;;;26.75;13.00;;;22.40;43.50;;;24.90;23.61;102299.06;5224659;28;20050;-64
2022/03/24 07:54:11;;;;;;;26.33;14.05;;;22.40;43.60;;;25.01;23.48;102299.06;5224799;28;20041;-64
2022/03/24 07:56:43;;;;;;;31.15;14.85;;;22.50;43.60;;;25.12;23.56;102303.53;5224829;28;20132;-64
2022/03/24 07:59:16;;;;;;;27.02;13.35;;;22.50;43.50;;;25.31;23.11;102303.50;5224262;28;20140;-64
2022/03/24 08:01:48;;;;;;;28.10;14.32;;;22.70;43.40;;;25.55;23.05;102316.75;5224572;28;20127;-65
2022/03/24 08:04:20;;;;;;;32.80;15.60;;;22.90;43.30;;;25.77;22.81;102311.38;5227542;28;20067;-63
2022/03/24 08:06:52;;;;;;;20.65;10.35;;;23.10;43.10;;;26.03;22.49;102312.13;5228378;28;20413;-58
2022/03/24 08:09:24;;;;;;;27.48;14.95;;;23.40;42.50;;;26.41;21.60;102319.97;5228741;28;20676;-65
2022/03/24 08:11:56;;;;;;;29.48;15.23;;;23.70;41.60;;;26.39;21.40;102319.03;5228092;28;20037;-65
2022/03/24 08:14:29;;;;;;;30.73;14.48;;;23.70;41.10;;;26.31;21.77;102318.19;5228325;28;20055;-65
2022/03/24 08:17:02;;;;;;;30.25;13.82;;;23.80;41.10;;;26.41;21.91;102319.06;5228747;28;20045;-64
2022/03/24 08:19:35;;;;;;;22.85;12.00;;;23.80;41.70;;;26.43;21.62;102317.28;5228234;28;20057;-65
2022/03/24 08:22:07;;;;;;;25.38;13.55;;;23.80;41.20;;;26.55;21.76;102319.84;5228406;28;20373;-64
2022/03/24 08:24:39;;;;;;;25.13;14.00;;;23.90;41.20;;;26.90;21.66;102316.00;5228695;28;20052;-63
2022/03/24 08:27:11;;;;;;;30.77;14.77;;;24.20;41.20;;;27.28;21.26;102316.53;5228133;28;20053;-66
2022/03/24 08:29:44;;;;;;;23.80;12.73;;;24.60;40.80;;;27.31;20.86;102313.81;5227777;28;20053;-67
2022/03/24 08:32:16;;;;;;;28.80;13.57;;;24.80;40.90;;;27.28;20.96;102318.34;5227596;28;20044;-70
2022/03/24 08:34:48;;;;;;;25.13;12.48;;;24.70;40.20;;;27.19;20.92;102318.41;5228419;28;20486;-68
2022/03/24 08:37:20;;;;;;;27.17;13.07;;;24.50;40.20;;;27.03;21.37;102320.31;5227767;28;20505;-69
2022/03/24 08:39:52;;;;;;;36.22;14.80;;;24.40;40.80;;;26.99;21.36;102321.25;5227617;28;20052;-66
2022/03/24 08:42:24;;;;;;;28.23;13.18;;;24.30;40.80;;;26.97;21.24;102323.06;5227563;28;20049;-68
2022/03/24 08:44:58;;;;;;;31.73;14.40;;;24.30;40.70;;;26.89;21.24;102319.56;5227679;28;20049;-67
2022/03/24 08:47:30;;;;;;;25.48;13.20;;;24.20;40.60;;;26.80;21.47;102317.88;5227664;28;20486;-67
2022/03/24 08:50:02;;;;;;;28.88;13.45;;;24.20;40.80;;;26.84;21.41;102318.72;5227518;28;20417;-68
2022/03/24 08:52:35;;;;;;;30.05;14.60;;;24.10;40.80;;;26.67;21.54;102311.75;5227687;28;20049;-68
2022/03/24 08:55:10;;;;;;;28.38;13.70;;;24.10;40.90;;;26.65;21.44;102316.19;5227473;28;20048;-66
2022/03/24 08:57:43;;;;;;;27.77;13.48;;;24.10;40.60;;;26.52;21.59;102326.09;5226161;28;20072;-67
2022/03/24 09:00:18;;;;;;;31.30;15.20;;;24.00;40.60;;;26.15;21.94;102325.44;5227251;28;20535;-67
2022/03/24 09:02:53;;;;;;;32.05;15.82;;;23.80;40.70;;;25.73;22.33;102322.97;5224240;28;20409;-66
2022/03/24 09:05:26;;;;;;;27.10;14.27;;;23.60;41.00;;;25.39;22.71;102321.25;5219683;28;20045;-65
2022/03/24 09:07:58;;;;;;;35.55;16.15;;;23.40;41.60;;;25.03;23.51;102324.81;5217413;28;20053;-62
2022/03/24 09:10:30;;;;;;;31.63;15.43;;;23.20;41.80;;;24.60;23.63;102324.84;5227014;28;20048;-62
2022/03/24 09:13:02;;;;;;;36.95;16.52;;;23.00;41.90;;;24.00;24.26;102326.47;5227642;28;20496;-61
2022/03/24 09:15:35;;;;;;;36.92;16.52;;;22.70;42.10;;;23.33;24.90;102317.22;5246636;28;20121;-60
2022/03/24 09:18:10;;;;;;;37.90;16.23;;;22.30;42.50;;;22.62;25.66;102324.59;5227646;28;20681;-63
2022/03/24 09:20:43;;;;;;;38.83;16.75;;;21.80;42.80;;;22.07;26.59;102317.81;5227551;28;20049;-61
2022/03/24 09:23:15;;;;;;;38.53;16.70;;;21.40;44.40;;;21.62;27.46;102309.31;5227488;28;20041;-60
2022/03/24 09:25:47;;;;;;;37.78;17.08;;;21.00;44.40;;;21.23;28.06;102317.56;5227238;28;20048;-60
2022/03/24 09:28:19;;;;;;;44.08;18.75;;;20.70;45.20;;;20.98;28.32;102313.63;5227547;28;20496;-62
2022/03/24 09:30:55;;;;;;;40.30;18.65;;;20.40;45.30;;;20.83;28.45;102311.63;5227091;28;20044;-61
2022/03/24 09:33:27;;;;;;;44.38;19.05;;;20.20;45.40;;;20.59;28.39;102311.19;5227514;28;20049;-61
2022/03/24 09:35:59;;;;;;;39.80;16.73;;;20.00;45.30;;;20.46;28.68;102311.84;5227248;28;20074;-61
2022/03/24 09:38:31;;;;;;;34.72;15.82;;;19.80;46.40;;;20.33;28.59;102308.94;5227070;28;20162;-61
2022/03/24 09:41:05;;;;;;;42.53;18.73;;;19.70;45.70;;;20.21;28.12;102308.75;5226851;28;20055;-64
2022/03/24 09:43:38;;;;;;;38.75;18.35;;;19.60;45.00;;;20.08;28.51;102314.63;5226620;28;20136;-64
2022/03/24 09:46:11;;;;;;;38.15;18.45;;;19.40;46.30;;;19.99;27.89;102310.06;5226603;28;20060;-63
2022/03/24 09:48:43;;;;;;;43.85;18.27;;;19.30;44.70;;;19.93;27.76;102307.28;5225915;28;20049;-64
2022/03/24 09:51:16;;;;;;;41.25;17.27;;;19.30;44.70;;;19.91;28.13;102308.13;5226724;28;20044;-63
2022/03/24 09:53:48;;;;;;;42.00;18.30;;;19.30;45.30;;;19.91;29.21;102313.41;5226704;28;20048;-64
2022/03/24 09:56:20;;;;;;;35.20;17.38;;;19.20;46.30;;;20.01;30.24;102305.66;5226204;28;20051;-64
2022/03/24 09:58:52;;;;;;;42.75;18.48;;;19.30;47.80;;;20.15;30.66;102307.69;5224344;28;20071;-66
2022/03/24 10:01:27;;;;;;;45.25;18.42;;;19.40;48.20;;;20.24;30.50;102303.47;5227058;28;20509;-65
2022/03/24 10:04:05;;;;;;;45.75;18.77;;;19.50;48.10;;;20.25;30.39;102302.63;5215935;28;20482;-66
2022/03/24 10:06:40;;;;;;;52.35;21.88;;;19.50;47.70;;;20.27;31.40;102298.22;5206226;28;20046;-66
2022/03/24 10:09:12;;;;;;;42.88;18.88;;;19.60;48.90;;;20.27;31.12;102306.16;5205557;28;20045;-65
2022/03/24 10:11:49;;;;;;;48.42;20.40;;;19.60;48.60;;;20.16;30.92;102302.47;5205604;28;20049;-62
2022/03/24 10:14:24;;;;;;;43.10;19.20;;;19.60;48.50;;;20.00;30.10;102298.59;5205879;28;20088;-64
2022/03/24 10:17:07;;;;;;;41.25;18.58;;;19.40;47.30;;;19.94;30.80;102302.88;5205167;28;20055;-63
2022/03/24 10:19:40;;;;;;;41.20;18.42;;;19.30;48.20;;;20.08;30.74;102306.69;5205599;28;20061;-62
2022/03/24 10:22:13;;;;;;;41.22;18.98;;;19.40;48.30;;;20.17;30.69;102296.28;5205435;28;20073;-63
2022/03/24 10:24:45;;;;;;;44.10;18.15;;;19.40;48.40;;;20.19;30.78;102293.66;5205313;28;20079;-63
2022/03/24 10:27:23;;;;;;;41.50;17.92;;;19.50;48.20;;;20.27;30.39;102292.94;5205475;28;20663;-62
2022/03/24 10:29:58;;;;;;;41.50;18.52;;;19.60;48.00;;;20.37;29.83;102295.78;5205493;28;20060;-63
2022/03/24 10:32:33;;;;;;;27.60;12.98;;;19.60;47.30;;;20.50;30.88;102287.22;5220737;28;20045;-71
2022/03/24 10:35:11;;;;;;;40.15;13.25;;;19.70;48.90;;;20.81;31.08;102289.53;5226184;28;20143;-72